sensor_id;sensor_type;location;lat;lon;timestamp;P1;P2;P0
65360;PMS5003;51958;55.018;73.536;2022-11-15T16:07:00;3.00;3.00;0.00
65360;PMS5003;51958;55.018;73.536;2022-11-15T16:09:28;3.00;3.00;0.00
65360;PMS5003;51958;55.018;73.536;2022-11-15T16:12:13;3.00;3.00;1.00
65360;PMS5003;51958;55.018;73.536;2022-11-15T16:14:42;3.00;3.00;1.00
65360;PMS5003;51958;55.018;73.536;2022-11-15T16:17:14;4.00;3.67;1.00
65360;PMS5003;51958;55.018;73.536;2022-11-15T16:19:53;6.00;6.00;3.00
65360;PMS5003;51958;55.018;73.536;2022-11-15T16:22:24;9.33;7.67;4.67
65360;PMS5003;51958;55.018;73.536;2022-11-15T16:24:56;14.67;13.00;6.33
65360;PMS5003;51958;55.018;73.536;2022-11-15T16:27:21;13.00;10.67;4.00
65360;PMS5003;51958;55.018;73.536;2022-11-15T16:29:57;10.00;7.00;3.00
65360;PMS5003;51958;55.018;73.536;2022-11-15T16:32:23;7.33;5.33;2.00
65360;PMS5003;51958;55.018;73.536;2022-11-15T16:34:49;6.33;4.67;2.00
65360;PMS5003;51958;55.018;73.536;2022-11-15T16:37:21;6.00;5.00;2.00
65360;PMS5003;51958;55.018;73.536;2022-11-15T16:39:47;4.00;3.00;1.00
65360;PMS5003;51958;55.018;73.536;2022-11-15T16:42:13;6.67;5.00;3.00
65360;PMS5003;51958;55.018;73.536;2022-11-15T16:44:39;3.00;3.00;1.00
65360;PMS5003;51958;55.018;73.536;2022-11-15T16:47:17;3.00;2.00;0.00
65360;PMS5003;51958;55.018;73.536;2022-11-15T16:49:57;4.00;3.00;0.00
65360;PMS5003;51958;55.018;73.536;2022-11-15T16:52:23;6.00;6.00;2.67
65360;PMS5003;51958;55.018;73.536;2022-11-15T16:54:49;9.00;8.00;6.00
65360;PMS5003;51958;55.018;73.536;2022-11-15T16:57:14;12.33;11.33;6.00
65360;PMS5003;51958;55.018;73.536;2022-11-15T16:59:46;15.67;13.67;7.33
65360;PMS5003;51958;55.018;73.536;2022-11-15T17:02:11;18.00;15.00;7.00
65360;PMS5003;51958;55.018;73.536;2022-11-15T17:04:37;18.67;15.67;6.33
65360;PMS5003;51958;55.018;73.536;2022-11-15T17:07:08;19.00;15.00;7.00
65360;PMS5003;51958;55.018;73.536;2022-11-15T17:09:34;16.00;13.00;6.00
65360;PMS5003;51958;55.018;73.536;2022-11-15T17:11:59;12.00;10.33;3.33
65360;PMS5003;51958;55.018;73.536;2022-11-15T17:14:30;9.00;6.00;2.00
65360;PMS5003;51958;55.018;73.536;2022-11-15T17:16:59;6.00;5.00;2.50
65360;PMS5003;51958;55.018;73.536;2022-11-15T17:19:25;11.00;8.00;4.00
65360;PMS5003;51958;55.018;73.536;2022-11-15T17:21:51;9.00;6.00;3.00
65360;PMS5003;51958;55.018;73.536;2022-11-15T17:24:18;6.00;4.00;2.00
65360;PMS5003;51958;55.018;73.536;2022-11-15T17:26:52;2.50;2.00;0.00
65360;PMS5003;51958;55.018;73.536;2022-11-15T17:29:17;3.00;3.00;0.00
65360;PMS5003;51958;55.018;73.536;2022-11-15T17:31:53;3.00;3.00;1.00
65360;PMS5003;51958;55.018;73.536;2022-11-15T17:34:19;5.00;3.00;1.00
65360;PMS5003;51958;55.018;73.536;2022-11-15T17:36:47;5.50;3.00;1.00
65360;PMS5003;51958;55.018;73.536;2022-11-15T17:39:13;3.00;3.00;0.00
65360;PMS5003;51958;55.018;73.536;2022-11-15T17:41:39;4.00;3.00;0.00
65360;PMS5003;51958;55.018;73.536;2022-11-15T17:44:04;3.00;3.00;0.00
65360;PMS5003;51958;55.018;73.536;2022-11-15T17:46:38;1.00;1.00;0.00
65360;PMS5003;51958;55.018;73.536;2022-11-15T17:49:05;2.00;2.00;0.00
65360;PMS5003;51958;55.018;73.536;2022-11-15T17:51:31;0.00;0.00;0.00
65360;PMS5003;51958;55.018;73.536;2022-11-15T17:54:08;0.00;0.00;0.00
65360;PMS5003;51958;55.018;73.536;2022-11-15T17:56:44;1.00;0.00;0.00
65360;PMS5003;51958;55.018;73.536;2022-11-15T17:59:10;2.00;2.00;1.00
